createdAt,value
2022-12-27T00:02:20.213Z,3.40
2022-12-27T00:04:46.842Z,3.60
2022-12-27T00:07:13.846Z,3.72
2022-12-27T00:09:40.153Z,4.18
2022-12-27T00:12:07.045Z,3.22
2022-12-27T00:14:33.433Z,3.80
2022-12-27T00:16:59.814Z,3.80
2022-12-27T00:19:26.135Z,3.88
2022-12-27T00:21:52.494Z,4.75
2022-12-27T00:24:18.807Z,3.75
2022-12-27T00:26:45.183Z,4.40
2022-12-27T00:29:11.500Z,3.70
2022-12-27T00:31:38.177Z,3.47
2022-12-27T00:34:07.258Z,3.15
2022-12-27T00:36:34.690Z,3.08
2022-12-27T00:39:01.350Z,3.50
2022-12-27T00:41:28.121Z,2.88
2022-12-27T00:43:54.609Z,2.88
2022-12-27T00:46:21.248Z,3.38
2022-12-27T00:48:47.940Z,3.22
2022-12-27T00:51:20.249Z,3.90
2022-12-27T00:53:47.435Z,3.25
2022-12-27T00:56:17.003Z,2.28
2022-12-27T00:58:43.709Z,2.30
2022-12-27T01:01:12.847Z,2.97
2022-12-27T01:03:39.342Z,2.58
2022-12-27T01:06:07.346Z,2.58
2022-12-27T01:08:33.783Z,2.40
2022-12-27T01:11:00.155Z,2.38
2022-12-27T01:13:26.497Z,1.95
2022-12-27T01:15:52.853Z,2.00
2022-12-27T01:18:19.315Z,2.05
2022-12-27T01:20:45.693Z,2.45
2022-12-27T01:23:12.011Z,2.80
2022-12-27T01:25:38.340Z,2.13
2022-12-27T01:28:05.132Z,2.13
2022-12-27T01:30:31.446Z,1.90
2022-12-27T01:32:58.252Z,2.38
2022-12-27T01:35:24.682Z,2.28
2022-12-27T01:37:52.125Z,2.42
2022-12-27T01:40:18.784Z,1.88
2022-12-27T01:42:55.280Z,2.08
2022-12-27T01:45:36.061Z,2.17
2022-12-27T01:48:05.204Z,1.90
2022-12-27T01:51:00.830Z,1.67
2022-12-27T01:53:38.752Z,1.80
2022-12-27T01:56:09.683Z,2.40
2022-12-27T01:58:40.717Z,2.47
2022-12-27T02:01:12.043Z,2.30
2022-12-27T02:03:46.289Z,2.38
2022-12-27T02:06:14.255Z,2.10
2022-12-27T02:08:56.567Z,2.10
2022-12-27T02:11:46.020Z,2.38
2022-12-27T02:14:13.687Z,2.28
2022-12-27T02:16:40.069Z,2.58
2022-12-27T02:19:21.100Z,2.28
2022-12-27T02:22:29.400Z,2.33
2022-12-27T02:25:18.181Z,2.47
2022-12-27T02:28:14.021Z,2.13
2022-12-27T02:30:43.391Z,2.60
2022-12-27T02:33:18.168Z,2.38
2022-12-27T02:35:59.579Z,2.53
2022-12-27T02:38:36.042Z,2.35
2022-12-27T02:41:25.243Z,2.53
2022-12-27T02:44:14.925Z,1.90
2022-12-27T02:47:01.109Z,2.38
2022-12-27T02:49:54.548Z,2.25
2022-12-27T02:53:03.735Z,2.15
2022-12-27T02:56:06.725Z,2.55
2022-12-27T02:58:51.630Z,2.20
2022-12-27T03:01:39.483Z,2.45
2022-12-27T03:04:15.893Z,2.13
2022-12-27T03:07:00.931Z,2.78
2022-12-27T03:09:57.936Z,2.47
2022-12-27T03:13:01.854Z,2.53
2022-12-27T03:16:00.987Z,2.78
2022-12-27T03:18:27.765Z,2.83
2022-12-27T03:21:16.499Z,2.15
2022-12-27T03:24:04.702Z,2.50
2022-12-27T03:26:34.764Z,2.15
2022-12-27T03:29:21.984Z,2.35
2022-12-27T03:32:13.238Z,2.13
2022-12-27T03:34:45.381Z,2.17
2022-12-27T03:37:34.235Z,2.35
2022-12-27T03:40:30.951Z,2.40
2022-12-27T03:43:13.735Z,2.50
2022-12-27T03:46:15.469Z,2.42
2022-12-27T03:49:02.257Z,2.40
2022-12-27T03:51:35.975Z,2.33
2022-12-27T03:54:10.375Z,2.15
2022-12-27T03:56:38.850Z,2.45
2022-12-27T03:59:05.584Z,1.63
2022-12-27T04:01:32.021Z,2.45
2022-12-27T04:03:58.432Z,2.40
2022-12-27T04:06:24.727Z,2.65
2022-12-27T04:09:09.812Z,2.28
2022-12-27T04:11:54.525Z,1.88
2022-12-27T04:14:39.326Z,2.05
2022-12-27T04:17:24.021Z,2.08
2022-12-27T04:20:09.074Z,2.33
2022-12-27T04:22:53.823Z,2.30
2022-12-27T04:25:38.571Z,2.03
2022-12-27T04:28:23.202Z,2.05
2022-12-27T04:31:07.931Z,2.25
2022-12-27T04:33:53.011Z,2.38
2022-12-27T04:36:19.346Z,2.47
2022-12-27T04:38:45.649Z,2.38
2022-12-27T04:41:30.802Z,2.38
2022-12-27T04:44:15.392Z,2.50
2022-12-27T04:47:00.206Z,2.55
2022-12-27T04:49:45.919Z,2.55
2022-12-27T04:52:40.687Z,2.75
2022-12-27T04:55:25.607Z,2.78
2022-12-27T04:57:52.691Z,2.80
2022-12-27T05:00:40.001Z,2.30
2022-12-27T05:03:09.909Z,2.75
2022-12-27T05:05:37.799Z,2.97
2022-12-27T05:08:23.844Z,2.47
2022-12-27T05:11:08.791Z,3.25
2022-12-27T05:13:53.796Z,2.67
2022-12-27T05:16:20.244Z,2.67
2022-12-27T05:18:46.674Z,2.42
2022-12-27T05:21:12.999Z,2.42
2022-12-27T05:24:03.374Z,5.20
2022-12-27T05:26:32.275Z,3.50
2022-12-27T05:28:58.998Z,3.45
2022-12-27T05:31:27.020Z,4.03
2022-12-27T05:33:53.942Z,4.85
2022-12-27T05:36:20.367Z,3.45
2022-12-27T05:38:47.153Z,3.42
2022-12-27T05:41:14.364Z,3.22
2022-12-27T05:43:41.283Z,4.05
2022-12-27T05:46:13.433Z,3.20
2022-12-27T05:48:40.119Z,3.15
2022-12-27T05:51:08.720Z,2.63
2022-12-27T05:53:35.504Z,3.13
2022-12-27T05:56:02.346Z,2.65
2022-12-27T05:58:29.085Z,2.90
2022-12-27T06:00:56.911Z,3.05
2022-12-27T06:03:23.761Z,3.05
2022-12-27T06:05:50.471Z,2.90
2022-12-27T06:08:16.891Z,3.13
2022-12-27T06:10:43.270Z,2.80
2022-12-27T06:13:09.584Z,2.85
2022-12-27T06:15:37.047Z,2.83
2022-12-27T06:18:04.083Z,2.88
2022-12-27T06:20:30.863Z,3.05
2022-12-27T06:23:00.041Z,2.85
2022-12-27T06:25:26.402Z,3.08
2022-12-27T06:27:52.748Z,2.90
2022-12-27T06:30:19.242Z,3.58
2022-12-27T06:32:45.544Z,3.22
2022-12-27T06:35:11.832Z,2.80
2022-12-27T06:37:39.123Z,3.20
2022-12-27T06:40:06.164Z,3.22
2022-12-27T06:42:32.487Z,3.67
2022-12-27T06:44:58.876Z,2.88
2022-12-27T06:47:25.151Z,3.00
2022-12-27T06:49:51.556Z,3.47
2022-12-27T06:52:17.907Z,2.83
2022-12-27T06:54:44.245Z,3.53
2022-12-27T06:57:10.534Z,3.03
2022-12-27T06:59:36.902Z,3.45
2022-12-27T07:02:03.388Z,3.25
2022-12-27T07:04:29.885Z,3.15
2022-12-27T07:06:56.246Z,3.67
2022-12-27T07:09:22.567Z,3.40
2022-12-27T07:11:48.931Z,2.97
2022-12-27T07:14:15.252Z,3.30
2022-12-27T07:16:41.613Z,3.00
2022-12-27T07:19:10.223Z,3.63
2022-12-27T07:21:36.687Z,2.70
2022-12-27T07:24:03.212Z,3.28
2022-12-27T07:26:30.690Z,3.42
2022-12-27T07:29:00.106Z,3.03
2022-12-27T07:31:29.664Z,3.20
2022-12-27T07:33:57.177Z,2.90
2022-12-27T07:36:27.912Z,3.88
2022-12-27T07:38:54.839Z,3.80
2022-12-27T07:41:21.373Z,3.60
2022-12-27T07:43:47.975Z,3.47
2022-12-27T07:46:19.942Z,5.03
2022-12-27T07:48:47.274Z,4.50
2022-12-27T07:51:14.961Z,11.38
2022-12-27T07:53:41.825Z,22.10
2022-12-27T07:56:26.115Z,49.45
2022-12-27T07:58:54.844Z,29.35
2022-12-27T08:01:23.047Z,17.30
2022-12-27T08:03:50.241Z,12.13
2022-12-27T08:06:24.069Z,13.40
2022-12-27T08:08:52.599Z,12.52
2022-12-27T08:11:19.439Z,9.18
2022-12-27T08:13:45.909Z,15.07
2022-12-27T08:16:17.582Z,10.80
2022-12-27T08:18:44.446Z,9.98
2022-12-27T08:21:10.776Z,13.07
2022-12-27T08:23:37.294Z,16.48
2022-12-27T08:26:05.350Z,15.57
2022-12-27T08:28:31.783Z,13.40
2022-12-27T08:30:59.781Z,9.80
2022-12-27T08:33:26.534Z,6.28
2022-12-27T08:35:54.826Z,5.80
2022-12-27T08:38:21.855Z,5.10
2022-12-27T08:40:48.195Z,4.68
2022-12-27T08:43:15.090Z,5.43
2022-12-27T08:45:42.015Z,6.85
2022-12-27T08:48:08.448Z,6.60
2022-12-27T08:50:34.784Z,6.15
2022-12-27T08:53:02.744Z,5.55
2022-12-27T08:55:30.388Z,5.07
2022-12-27T08:57:58.185Z,5.32
2022-12-27T09:00:26.223Z,4.05
2022-12-27T09:02:53.286Z,4.32
2022-12-27T09:05:20.060Z,4.55
2022-12-27T09:07:46.986Z,4.45
2022-12-27T09:10:14.013Z,4.20
2022-12-27T09:12:40.380Z,4.63
2022-12-27T09:15:07.807Z,3.95
2022-12-27T09:17:34.136Z,4.00
2022-12-27T09:20:00.457Z,3.92
2022-12-27T09:22:28.691Z,4.03
2022-12-27T09:24:54.996Z,4.43
2022-12-27T09:27:21.308Z,4.85
2022-12-27T09:29:48.577Z,4.53
2022-12-27T09:32:15.156Z,5.50
2022-12-27T09:34:41.594Z,5.28
2022-12-27T09:37:08.981Z,6.40
2022-12-27T09:39:36.023Z,8.38
2022-12-27T09:45:15.888Z,6.47
2022-12-27T09:47:56.752Z,7.15
2022-12-27T09:50:40.278Z,5.80
2022-12-27T09:53:13.829Z,4.80
2022-12-27T09:55:44.709Z,4.63
2022-12-27T09:58:23.089Z,4.53
2022-12-27T10:00:50.482Z,4.47
2022-12-27T10:03:21.068Z,4.82
2022-12-27T10:05:56.320Z,5.90
2022-12-27T10:08:43.165Z,5.95
2022-12-27T10:11:38.812Z,5.50
2022-12-27T10:14:29.690Z,9.07
2022-12-27T10:17:33.076Z,6.18
2022-12-27T10:20:21.829Z,7.28
2022-12-27T10:22:52.945Z,5.47
2022-12-27T10:25:21.983Z,5.18
2022-12-27T10:27:51.078Z,6.00
2022-12-27T10:30:20.295Z,6.70
2022-12-27T10:32:47.658Z,5.03
2022-12-27T10:35:16.571Z,5.35
2022-12-27T10:37:44.406Z,5.32
2022-12-27T10:40:19.134Z,4.38
2022-12-27T10:42:53.244Z,3.70
2022-12-27T10:45:39.304Z,4.40
2022-12-27T10:48:21.023Z,2.97
2022-12-27T10:50:53.321Z,3.45
2022-12-27T10:53:31.480Z,3.42
2022-12-27T10:56:21.188Z,3.22
2022-12-27T10:58:56.459Z,3.75
2022-12-27T11:01:27.440Z,3.22
2022-12-27T11:04:15.979Z,3.67
2022-12-27T11:06:51.851Z,3.22
2022-12-27T11:09:26.689Z,3.45
2022-12-27T11:12:10.703Z,3.38
2022-12-27T11:14:37.189Z,3.25
2022-12-27T11:17:11.264Z,3.55
2022-12-27T11:19:45.537Z,3.30
2022-12-27T11:22:11.979Z,3.10
2022-12-27T11:24:47.779Z,3.30
2022-12-27T11:27:24.291Z,3.97
2022-12-27T11:29:52.988Z,3.30
2022-12-27T11:32:23.147Z,3.15
2022-12-27T11:34:53.480Z,3.20
2022-12-27T11:39:54.935Z,5.00
2022-12-27T11:42:30.105Z,2.53
2022-12-27T11:45:25.467Z,3.15
2022-12-27T11:48:06.028Z,3.13
2022-12-27T11:50:47.660Z,2.97
2022-12-27T11:53:56.191Z,2.78
2022-12-27T11:56:38.817Z,3.70
2022-12-27T11:59:44.424Z,3.63
2022-12-27T12:02:20.830Z,3.10
2022-12-27T12:05:15.070Z,3.78
2022-12-27T12:08:01.231Z,3.65
2022-12-27T12:10:46.063Z,4.00
2022-12-27T12:13:43.941Z,2.90
2022-12-27T12:16:48.802Z,3.03
2022-12-27T12:19:34.178Z,3.45
2022-12-27T12:22:38.400Z,3.22
2022-12-27T12:25:29.051Z,3.80
2022-12-27T12:31:38.955Z,3.13
2022-12-27T12:34:34.146Z,4.50
2022-12-27T12:37:17.666Z,4.13
2022-12-27T12:40:03.646Z,3.50
2022-12-27T12:42:48.663Z,4.03
2022-12-27T12:45:33.790Z,2.90
2022-12-27T12:48:20.041Z,3.15
2022-12-27T12:51:20.541Z,3.28
2022-12-27T12:53:49.815Z,4.75
2022-12-27T12:56:28.433Z,13.20
2022-12-27T12:59:07.325Z,12.75
2022-12-27T13:01:54.096Z,7.47
2022-12-27T13:04:44.589Z,7.25
2022-12-27T13:07:39.797Z,7.15
2022-12-27T13:10:44.112Z,6.55
2022-12-27T13:13:26.038Z,5.95
2022-12-27T13:16:40.208Z,5.93
2022-12-27T13:19:18.520Z,5.00
2022-12-27T13:22:14.738Z,4.07
2022-12-27T13:24:59.189Z,4.20
2022-12-27T13:27:35.512Z,3.80
2022-12-27T13:30:22.003Z,3.60
2022-12-27T13:33:17.491Z,2.63
2022-12-27T13:36:06.795Z,2.30
2022-12-27T13:38:36.069Z,3.08
2022-12-27T13:41:30.121Z,2.83
2022-12-27T13:44:15.422Z,3.60
2022-12-27T13:46:58.874Z,2.83
2022-12-27T13:49:54.525Z,2.15
2022-12-27T13:52:42.066Z,2.15
2022-12-27T13:55:42.282Z,2.10
2022-12-27T13:58:41.092Z,2.38
2022-12-27T14:01:29.392Z,2.90
2022-12-27T14:04:43.110Z,2.92
2022-12-27T14:07:57.664Z,2.47
2022-12-27T14:10:37.517Z,1.92
2022-12-27T14:13:09.189Z,2.97
2022-12-27T14:15:50.576Z,2.30
2022-12-27T14:18:44.766Z,1.92
2022-12-27T14:21:33.717Z,2.47
2022-12-27T14:24:35.569Z,2.60
2022-12-27T14:27:41.463Z,2.13
2022-12-27T14:30:38.045Z,2.55
2022-12-27T14:33:31.717Z,4.88
2022-12-27T14:36:19.249Z,7.68
2022-12-27T14:39:10.677Z,9.63
2022-12-27T14:45:01.574Z,5.88
2022-12-27T14:48:00.115Z,4.20
2022-12-27T14:50:54.074Z,2.30
2022-12-27T14:53:54.689Z,2.10
2022-12-27T14:56:38.696Z,2.30
2022-12-27T14:59:23.706Z,2.30
2022-12-27T15:02:23.538Z,2.08
2022-12-27T15:05:06.254Z,2.10
2022-12-27T15:08:05.986Z,2.10
2022-12-27T15:11:11.255Z,2.28
2022-12-27T15:13:51.890Z,2.67
2022-12-27T15:16:33.925Z,2.65
2022-12-27T15:19:24.414Z,5.57
2022-12-27T15:22:20.975Z,6.73
2022-12-27T15:25:06.941Z,4.80
2022-12-27T15:27:43.240Z,3.78
2022-12-27T15:30:28.784Z,3.35
2022-12-27T15:33:20.803Z,2.42
2022-12-27T15:35:59.613Z,3.00
2022-12-27T15:38:52.986Z,3.20
2022-12-27T15:41:48.044Z,3.70
2022-12-27T15:44:24.433Z,4.65
2022-12-27T15:47:24.887Z,5.63
2022-12-27T15:50:20.068Z,6.65
2022-12-27T15:52:46.404Z,5.47
2022-12-27T15:55:31.655Z,7.22
2022-12-27T15:58:18.864Z,5.15
2022-12-27T16:01:05.763Z,4.68
2022-12-27T16:03:39.106Z,6.10
2022-12-27T16:06:07.673Z,4.40
2022-12-27T16:08:37.693Z,3.67
2022-12-27T16:11:10.456Z,3.80
2022-12-27T16:13:42.923Z,2.70
2022-12-27T16:16:28.382Z,3.10
2022-12-27T16:19:18.762Z,2.40
2022-12-27T16:21:46.497Z,2.17
2022-12-27T16:24:18.046Z,2.38
2022-12-27T16:27:04.612Z,3.22
2022-12-27T16:29:33.771Z,3.28
2022-12-27T16:32:23.840Z,2.70
2022-12-27T16:34:55.040Z,2.50
2022-12-27T16:40:05.863Z,2.40
2022-12-27T16:42:58.236Z,3.03
2022-12-27T16:45:24.515Z,3.65
2022-12-27T16:48:25.982Z,2.42
2022-12-27T16:51:22.571Z,2.75
2022-12-27T16:54:16.884Z,4.90
2022-12-27T16:56:47.872Z,5.95
2022-12-27T16:59:51.803Z,12.82
2022-12-27T17:02:41.871Z,6.95
2022-12-27T17:05:14.221Z,5.45
2022-12-27T17:07:52.973Z,3.42
2022-12-27T17:10:28.460Z,3.30
2022-12-27T17:12:59.510Z,4.07
2022-12-27T17:15:27.255Z,11.02
2022-12-27T17:17:58.856Z,12.75
2022-12-27T17:20:25.447Z,10.38
2022-12-27T17:22:57.457Z,7.90
2022-12-27T17:25:35.663Z,6.63
2022-12-27T17:28:20.608Z,4.63
2022-12-27T17:31:19.500Z,6.25
2022-12-27T17:34:33.072Z,5.03
2022-12-27T17:37:17.724Z,5.13
2022-12-27T17:40:22.753Z,8.63
2022-12-27T17:43:45.183Z,12.98
2022-12-27T17:46:39.611Z,9.38
2022-12-27T17:49:09.335Z,6.75
2022-12-27T17:51:40.335Z,6.32
2022-12-27T17:54:54.807Z,11.23
2022-12-27T17:57:40.531Z,6.28
2022-12-27T18:00:22.629Z,7.38
2022-12-27T18:02:50.314Z,10.75
2022-12-27T18:05:17.569Z,15.05
2022-12-27T18:07:44.315Z,13.20
2022-12-27T18:10:22.668Z,18.67
2022-12-27T18:12:57.969Z,42.30
2022-12-27T18:15:26.821Z,23.83
2022-12-27T18:18:02.363Z,11.63
2022-12-27T18:20:33.315Z,11.30
2022-12-27T18:23:02.453Z,17.17
2022-12-27T18:25:43.351Z,25.92
2022-12-27T18:28:18.048Z,27.50
2022-12-27T18:30:59.468Z,23.75
2022-12-27T18:33:33.831Z,24.50
2022-12-27T18:36:04.364Z,21.70
2022-12-27T18:38:38.474Z,15.93
2022-12-27T18:41:09.840Z,13.63
2022-12-27T18:43:41.824Z,10.27
2022-12-27T18:46:15.080Z,12.70
2022-12-27T18:48:41.977Z,11.98
2022-12-27T18:51:09.114Z,9.82
2022-12-27T18:53:38.176Z,20.50
2022-12-27T18:56:25.702Z,15.90
2022-12-27T18:59:20.347Z,8.55
2022-12-27T19:01:47.678Z,14.15
2022-12-27T19:04:14.310Z,18.48
2022-12-27T19:06:42.565Z,12.20
2022-12-27T19:09:15.747Z,7.88
2022-12-27T19:11:52.213Z,17.02
2022-12-27T19:14:20.624Z,18.88
2022-12-27T19:16:54.484Z,13.23
2022-12-27T19:19:29.265Z,31.05
2022-12-27T19:21:56.794Z,32.83
2022-12-27T19:24:23.457Z,28.23
2022-12-27T19:26:51.084Z,42.20
2022-12-27T19:29:23.618Z,25.13
2022-12-27T19:32:06.049Z,22.45
2022-12-27T19:34:46.007Z,14.38
2022-12-27T19:37:12.580Z,7.40
2022-12-27T19:39:40.268Z,5.75
2022-12-27T19:42:11.911Z,12.85
2022-12-27T19:44:38.359Z,11.82
2022-12-27T19:47:04.698Z,6.55
2022-12-27T19:49:42.785Z,5.22
2022-12-27T19:52:17.489Z,5.20
2022-12-27T19:54:44.041Z,4.15
2022-12-27T19:57:14.495Z,3.65
2022-12-27T19:59:41.113Z,3.78
2022-12-27T20:02:08.587Z,3.40
2022-12-27T20:04:35.174Z,5.18
2022-12-27T20:07:02.202Z,5.32
2022-12-27T20:09:28.804Z,9.80
2022-12-27T20:11:55.338Z,5.68
2022-12-27T20:14:21.733Z,4.80
2022-12-27T20:16:48.258Z,4.97
2022-12-27T20:19:16.378Z,6.32
2022-12-27T20:21:42.762Z,7.15
2022-12-27T20:24:13.290Z,6.57
2022-12-27T20:26:40.254Z,6.78
2022-12-27T20:29:06.700Z,4.30
2022-12-27T20:31:33.141Z,4.88
2022-12-27T20:33:59.471Z,3.92
2022-12-27T20:36:25.792Z,3.80
2022-12-27T20:38:52.232Z,4.05
2022-12-27T20:41:21.103Z,3.88
2022-12-27T20:43:47.693Z,4.28
2022-12-27T20:46:17.120Z,4.70
2022-12-27T20:48:45.644Z,4.30
2022-12-27T20:51:15.522Z,5.30
2022-12-27T20:53:42.188Z,4.80
2022-12-27T20:56:12.895Z,3.92
2022-12-27T20:58:39.804Z,5.43
2022-12-27T21:01:11.933Z,7.07
2022-12-27T21:03:39.574Z,6.05
2022-12-27T21:06:14.633Z,8.20
2022-12-27T21:08:47.870Z,9.43
2022-12-27T21:11:24.004Z,7.57
2022-12-27T21:13:50.390Z,8.73
2022-12-27T21:16:25.562Z,9.50
2022-12-27T21:18:52.671Z,7.72
2022-12-27T21:21:21.954Z,11.90
2022-12-27T21:23:50.342Z,12.95
2022-12-27T21:26:25.519Z,13.65
2022-12-27T21:28:52.564Z,21.35
2022-12-27T21:31:19.848Z,14.38
2022-12-27T21:33:47.265Z,12.90
2022-12-27T21:36:17.529Z,17.67
2022-12-27T21:38:44.189Z,12.00
2022-12-27T21:41:21.777Z,11.88
2022-12-27T21:43:49.157Z,15.77
2022-12-27T21:46:37.343Z,11.10
2022-12-27T21:49:07.136Z,14.90
2022-12-27T21:51:34.591Z,11.35
2022-12-27T21:54:01.721Z,12.35
2022-12-27T21:56:29.105Z,23.52
2022-12-27T21:58:55.985Z,13.30
2022-12-27T22:01:24.728Z,14.70
2022-12-27T22:03:52.961Z,9.77
2022-12-27T22:06:22.626Z,12.18
2022-12-27T22:08:53.987Z,12.50
2022-12-27T22:11:22.593Z,10.82
2022-12-27T22:13:49.572Z,18.25
2022-12-27T22:16:18.653Z,9.57
2022-12-27T22:18:45.576Z,8.68
2022-12-27T22:21:14.974Z,10.80
2022-12-27T22:23:44.945Z,16.98
2022-12-27T22:26:14.088Z,9.82
2022-12-27T22:28:41.038Z,28.88
2022-12-27T22:31:09.659Z,25.77
2022-12-27T22:33:36.665Z,40.38
2022-12-27T22:36:09.211Z,38.10
2022-12-27T22:38:36.908Z,36.17
2022-12-27T22:41:09.047Z,45.25
2022-12-27T22:43:35.350Z,37.95
2022-12-27T22:46:09.787Z,23.92
2022-12-27T22:48:36.361Z,11.88
2022-12-27T22:51:12.826Z,22.85
2022-12-27T22:53:39.588Z,26.48
2022-12-27T22:56:13.191Z,20.13
2022-12-27T22:58:39.552Z,12.80
2022-12-27T23:01:11.580Z,10.32
2022-12-27T23:03:37.983Z,6.97
2022-12-27T23:06:04.501Z,6.32
2022-12-27T23:08:30.807Z,6.95
2022-12-27T23:11:05.440Z,9.13
2022-12-27T23:13:31.878Z,7.25
2022-12-27T23:16:00.632Z,8.10
2022-12-27T23:18:28.041Z,8.15
2022-12-27T23:21:21.692Z,7.82
2022-12-27T23:23:42.229Z,7.90
2022-12-27T23:26:13.004Z,9.05
2022-12-27T23:28:42.677Z,6.25
2022-12-27T23:31:13.232Z,6.05
2022-12-27T23:33:42.058Z,7.53
2022-12-27T23:36:09.425Z,19.48
2022-12-27T23:38:36.291Z,7.50
2022-12-27T23:41:05.262Z,8.43
2022-12-27T23:43:51.494Z,6.00
2022-12-27T23:46:24.372Z,7.57
2022-12-27T23:48:51.342Z,4.90
2022-12-27T23:51:18.079Z,16.40
2022-12-27T23:53:44.668Z,18.77
2022-12-27T23:56:28.933Z,14.18
2022-12-27T23:58:57.260Z,11.80
